Adams, IL

12:09 PM CST on February 10, 2016 (GMT -0600)
Quincy Regional-Baldwin | | Change Station
CLOSE
Current Station
Airport
Location: Quincy,
Elevation: 768 ft
Nearby Weather Stations

Elev 768 ft 39.94 °N, 91.19 °W | Updated 8 minutes ago

Overcast
Overcast
18 °F
Feels Like 13 °F
N
4
Wind Variable Wind from WSW

Today
High -- | Low -- °F
--% Chance of Precip.
Yesterday
High -- | Low -- °F
Precip. -- in
Pressure 30.13 in
Visibility 2.0 miles
Clouds Mostly Cloudy 3300 ft
Overcast 4300 ft
Windchill 13 °F
Dew Point 9 °F
Humidity 68%
Rainfall 0.00 in
Snow Depth Not available.
7:03 AM 5:33 PM
Waxing Crescent, 6% visible
SPECI KUIN 101801Z AUTO 25003KT 2SM -SN BKN033 OVC043 M08/M13 A3013 RMK AO2 P0000 T10781128
Pressure 30.13 in
Visibility 2.0 miles
Clouds Mostly Cloudy 3300 ft
Overcast 4300 ft
Windchill 13 °F
Dew Point 9 °F
Humidity 68%
Rainfall 0.00 in
Snow Depth Not available.
7:03 AM 5:33 PM
Waxing Crescent, 6% visible
SPECI KUIN 101801Z AUTO 25003KT 2SM -SN BKN033 OVC043 M08/M13 A3013 RMK AO2 P0000 T10781128

10-Day Weather Forecast

Almanac

Astronomy

Feb. 10, 2016 Rise Set
Actual Time
Civil Twilight
Nautical Twilight
Astronomical Twilight
Moon
Length of Visible Light
Length of Day
Tomorrow will be .
, % of the Moon is Illuminated

Today's Extremes

State Highs State Lows

Community

WunderPhotos

Upload Photos

1,891,904 photos uploaded!

WunderBlog® & News

Nearby

Air Quality

  Air Quality AQ Index Pollutant
Not available.

Snow Depth

Station Depth Elevation

Earthquake Activity

City Distance Mag. Time & Date
Minimum magnitude displayed is 2.5.

Coastal Water Temperatures

Place Temperature

Stations

Nearby Weather Stations

Station Location Temp. Windchill Dew Point Humidity Wind Precip. Elev Updated Type
                   

Watches & Warnings

There are currently no watches in effect.